sensor_id;sensor_type;location;lat;lon;timestamp;temperature;humidity
45983;DHT22;31711;47.158;7.346;2023-07-31T00:00:34;16.70;99.90
45983;DHT22;31711;47.158;7.346;2023-07-31T00:03:00;16.70;99.90
45983;DHT22;31711;47.158;7.346;2023-07-31T00:05:26;16.70;99.90
45983;DHT22;31711;47.158;7.346;2023-07-31T00:07:52;16.70;99.90
45983;DHT22;31711;47.158;7.346;2023-07-31T00:10:20;16.60;99.90
45983;DHT22;31711;47.158;7.346;2023-07-31T00:12:52;16.80;99.90
45983;DHT22;31711;47.158;7.346;2023-07-31T00:15:18;16.90;99.90
45983;DHT22;31711;47.158;7.346;2023-07-31T00:17:44;16.90;99.90
45983;DHT22;31711;47.158;7.346;2023-07-31T00:20:13;16.80;99.90
45983;DHT22;31711;47.158;7.346;2023-07-31T00:22:39;16.80;99.90
45983;DHT22;31711;47.158;7.346;2023-07-31T00:25:08;16.70;99.90
45983;DHT22;31711;47.158;7.346;2023-07-31T00:27:34;16.70;99.90
45983;DHT22;31711;47.158;7.346;2023-07-31T00:30:03;16.70;99.90
45983;DHT22;31711;47.158;7.346;2023-07-31T00:32:30;16.60;99.90
45983;DHT22;31711;47.158;7.346;2023-07-31T00:34:56;16.50;99.90
45983;DHT22;31711;47.158;7.346;2023-07-31T00:37:21;16.40;99.90
45983;DHT22;31711;47.158;7.346;2023-07-31T00:39:47;16.30;99.90
45983;DHT22;31711;47.158;7.346;2023-07-31T00:42:13;16.20;99.90
45983;DHT22;31711;47.158;7.346;2023-07-31T00:44:39;15.90;99.90
45983;DHT22;31711;47.158;7.346;2023-07-31T00:47:05;15.90;99.90
45983;DHT22;31711;47.158;7.346;2023-07-31T00:49:32;15.80;99.90
45983;DHT22;31711;47.158;7.346;2023-07-31T00:51:58;15.70;99.90
45983;DHT22;31711;47.158;7.346;2023-07-31T00:54:25;15.60;99.90
45983;DHT22;31711;47.158;7.346;2023-07-31T00:56:53;15.50;99.90
45983;DHT22;31711;47.158;7.346;2023-07-31T00:59:20;15.50;99.90
45983;DHT22;31711;47.158;7.346;2023-07-31T01:01:46;15.50;99.90
45983;DHT22;31711;47.158;7.346;2023-07-31T01:04:13;15.40;99.90
45983;DHT22;31711;47.158;7.346;2023-07-31T01:06:48;15.40;99.90
45983;DHT22;31711;47.158;7.346;2023-07-31T01:09:34;15.40;99.90
45983;DHT22;31711;47.158;7.346;2023-07-31T01:12:03;15.30;99.90
45983;DHT22;31711;47.158;7.346;2023-07-31T01:14:30;15.30;99.90
45983;DHT22;31711;47.158;7.346;2023-07-31T01:16:56;15.20;99.90
45983;DHT22;31711;47.158;7.346;2023-07-31T01:19:24;15.10;99.90
45983;DHT22;31711;47.158;7.346;2023-07-31T01:27:30;14.80;99.90
45983;DHT22;31711;47.158;7.346;2023-07-31T01:30:13;14.80;99.90
45983;DHT22;31711;47.158;7.346;2023-07-31T01:32:43;14.70;99.90
45983;DHT22;31711;47.158;7.346;2023-07-31T01:35:12;14.60;99.90
45983;DHT22;31711;47.158;7.346;2023-07-31T01:37:38;14.70;99.90
45983;DHT22;31711;47.158;7.346;2023-07-31T01:40:05;14.60;99.90
45983;DHT22;31711;47.158;7.346;2023-07-31T01:42:31;14.50;99.90
45983;DHT22;31711;47.158;7.346;2023-07-31T01:44:58;14.60;99.90
45983;DHT22;31711;47.158;7.346;2023-07-31T01:47:24;14.50;99.90
45983;DHT22;31711;47.158;7.346;2023-07-31T01:49:50;14.50;99.90
45983;DHT22;31711;47.158;7.346;2023-07-31T01:52:16;14.40;99.90
45983;DHT22;31711;47.158;7.346;2023-07-31T01:54:42;14.20;99.90
45983;DHT22;31711;47.158;7.346;2023-07-31T01:57:08;14.20;99.90
45983;DHT22;31711;47.158;7.346;2023-07-31T01:59:34;14.20;99.90
45983;DHT22;31711;47.158;7.346;2023-07-31T02:02:00;14.10;99.90
45983;DHT22;31711;47.158;7.346;2023-07-31T02:04:26;14.10;99.90
45983;DHT22;31711;47.158;7.346;2023-07-31T02:06:53;14.10;99.90
45983;DHT22;31711;47.158;7.346;2023-07-31T02:09:19;14.10;99.90
45983;DHT22;31711;47.158;7.346;2023-07-31T02:11:45;14.10;99.90
45983;DHT22;31711;47.158;7.346;2023-07-31T02:14:10;14.10;99.90
45983;DHT22;31711;47.158;7.346;2023-07-31T02:16:36;14.10;99.90
45983;DHT22;31711;47.158;7.346;2023-07-31T02:19:02;14.10;99.90
45983;DHT22;31711;47.158;7.346;2023-07-31T02:21:28;14.10;99.90
45983;DHT22;31711;47.158;7.346;2023-07-31T02:23:54;14.00;99.90
45983;DHT22;31711;47.158;7.346;2023-07-31T02:26:20;14.00;99.90
45983;DHT22;31711;47.158;7.346;2023-07-31T02:28:46;14.00;99.90
45983;DHT22;31711;47.158;7.346;2023-07-31T02:31:12;13.90;99.90
45983;DHT22;31711;47.158;7.346;2023-07-31T02:33:38;13.90;99.90
45983;DHT22;31711;47.158;7.346;2023-07-31T02:36:04;13.90;99.90
45983;DHT22;31711;47.158;7.346;2023-07-31T02:38:30;13.90;99.90
45983;DHT22;31711;47.158;7.346;2023-07-31T02:40:56;13.80;99.90
45983;DHT22;31711;47.158;7.346;2023-07-31T02:43:22;13.80;99.90
45983;DHT22;31711;47.158;7.346;2023-07-31T02:45:52;13.90;99.90
45983;DHT22;31711;47.158;7.346;2023-07-31T02:48:18;13.90;99.90
45983;DHT22;31711;47.158;7.346;2023-07-31T02:50:45;13.90;99.90
45983;DHT22;31711;47.158;7.346;2023-07-31T02:53:11;13.90;99.90
45983;DHT22;31711;47.158;7.346;2023-07-31T02:55:37;13.80;99.90
45983;DHT22;31711;47.158;7.346;2023-07-31T02:58:04;13.90;99.90
45983;DHT22;31711;47.158;7.346;2023-07-31T03:00:30;13.90;99.90
45983;DHT22;31711;47.158;7.346;2023-07-31T03:02:56;13.90;99.90
45983;DHT22;31711;47.158;7.346;2023-07-31T03:05:22;13.90;99.90
45983;DHT22;31711;47.158;7.346;2023-07-31T03:07:48;13.80;99.90
45983;DHT22;31711;47.158;7.346;2023-07-31T03:10:14;13.70;99.90
45983;DHT22;31711;47.158;7.346;2023-07-31T03:12:40;13.70;99.90
45983;DHT22;31711;47.158;7.346;2023-07-31T03:15:07;13.70;99.90
45983;DHT22;31711;47.158;7.346;2023-07-31T03:17:33;13.60;99.90
45983;DHT22;31711;47.158;7.346;2023-07-31T03:19:59;13.60;99.90
45983;DHT22;31711;47.158;7.346;2023-07-31T03:22:25;13.60;99.90
45983;DHT22;31711;47.158;7.346;2023-07-31T03:24:51;13.60;99.90
45983;DHT22;31711;47.158;7.346;2023-07-31T03:27:17;13.60;99.90
45983;DHT22;31711;47.158;7.346;2023-07-31T03:29:44;13.60;99.90
45983;DHT22;31711;47.158;7.346;2023-07-31T03:32:10;13.50;99.90
45983;DHT22;31711;47.158;7.346;2023-07-31T03:34:35;13.60;99.90
45983;DHT22;31711;47.158;7.346;2023-07-31T03:37:01;13.40;99.90
45983;DHT22;31711;47.158;7.346;2023-07-31T03:39:27;13.50;99.90
45983;DHT22;31711;47.158;7.346;2023-07-31T03:41:53;13.60;99.90
45983;DHT22;31711;47.158;7.346;2023-07-31T03:44:19;13.60;99.90
45983;DHT22;31711;47.158;7.346;2023-07-31T03:46:45;13.60;99.90
45983;DHT22;31711;47.158;7.346;2023-07-31T03:49:11;13.60;99.90
45983;DHT22;31711;47.158;7.346;2023-07-31T03:51:37;13.70;99.90
45983;DHT22;31711;47.158;7.346;2023-07-31T03:54:03;13.70;99.90
45983;DHT22;31711;47.158;7.346;2023-07-31T03:56:29;13.70;99.90
45983;DHT22;31711;47.158;7.346;2023-07-31T03:58:55;13.70;99.90
45983;DHT22;31711;47.158;7.346;2023-07-31T04:01:21;13.70;99.90
45983;DHT22;31711;47.158;7.346;2023-07-31T04:03:47;13.60;99.90
45983;DHT22;31711;47.158;7.346;2023-07-31T04:06:13;13.60;99.90
45983;DHT22;31711;47.158;7.346;2023-07-31T04:08:39;13.60;99.90
45983;DHT22;31711;47.158;7.346;2023-07-31T04:11:05;13.70;99.90
45983;DHT22;31711;47.158;7.346;2023-07-31T04:13:31;13.60;99.90
45983;DHT22;31711;47.158;7.346;2023-07-31T04:15:57;13.70;99.90
45983;DHT22;31711;47.158;7.346;2023-07-31T04:18:25;13.60;99.90
45983;DHT22;31711;47.158;7.346;2023-07-31T04:20:51;13.60;99.90
45983;DHT22;31711;47.158;7.346;2023-07-31T04:23:17;13.60;99.90
45983;DHT22;31711;47.158;7.346;2023-07-31T04:25:43;13.70;99.90
45983;DHT22;31711;47.158;7.346;2023-07-31T04:28:09;13.70;99.90
45983;DHT22;31711;47.158;7.346;2023-07-31T04:30:35;13.70;99.90
45983;DHT22;31711;47.158;7.346;2023-07-31T04:33:02;13.70;99.90
45983;DHT22;31711;47.158;7.346;2023-07-31T04:35:28;13.60;99.90
45983;DHT22;31711;47.158;7.346;2023-07-31T04:37:55;13.60;99.90
45983;DHT22;31711;47.158;7.346;2023-07-31T04:40:21;13.70;99.90
45983;DHT22;31711;47.158;7.346;2023-07-31T04:42:47;13.80;99.90
45983;DHT22;31711;47.158;7.346;2023-07-31T04:45:15;13.90;99.90
45983;DHT22;31711;47.158;7.346;2023-07-31T04:47:41;14.00;99.90
45983;DHT22;31711;47.158;7.346;2023-07-31T04:50:07;14.10;99.90
45983;DHT22;31711;47.158;7.346;2023-07-31T04:52:33;14.10;99.90
45983;DHT22;31711;47.158;7.346;2023-07-31T04:54:59;14.00;99.90
45983;DHT22;31711;47.158;7.346;2023-07-31T04:57:25;14.00;99.90
45983;DHT22;31711;47.158;7.346;2023-07-31T04:59:51;13.90;99.90
45983;DHT22;31711;47.158;7.346;2023-07-31T05:02:17;13.90;99.90
45983;DHT22;31711;47.158;7.346;2023-07-31T05:04:43;13.90;99.90
45983;DHT22;31711;47.158;7.346;2023-07-31T05:07:08;13.90;99.90
45983;DHT22;31711;47.158;7.346;2023-07-31T05:09:34;14.00;99.90
45983;DHT22;31711;47.158;7.346;2023-07-31T05:12:00;14.10;99.90
45983;DHT22;31711;47.158;7.346;2023-07-31T05:14:26;14.20;99.90
45983;DHT22;31711;47.158;7.346;2023-07-31T05:16:52;14.30;99.90
45983;DHT22;31711;47.158;7.346;2023-07-31T05:19:18;14.50;99.90
45983;DHT22;31711;47.158;7.346;2023-07-31T05:21:44;14.70;99.90
45983;DHT22;31711;47.158;7.346;2023-07-31T05:24:10;14.70;99.90
45983;DHT22;31711;47.158;7.346;2023-07-31T05:26:37;14.90;99.90
45983;DHT22;31711;47.158;7.346;2023-07-31T05:29:03;15.10;99.90
45983;DHT22;31711;47.158;7.346;2023-07-31T05:31:29;15.40;99.90
45983;DHT22;31711;47.158;7.346;2023-07-31T05:33:55;15.50;99.90
45983;DHT22;31711;47.158;7.346;2023-07-31T05:36:21;15.50;99.90
45983;DHT22;31711;47.158;7.346;2023-07-31T05:38:47;15.70;99.90
45983;DHT22;31711;47.158;7.346;2023-07-31T05:41:13;15.70;99.90
45983;DHT22;31711;47.158;7.346;2023-07-31T05:43:39;15.80;99.90
45983;DHT22;31711;47.158;7.346;2023-07-31T05:46:06;15.70;99.90
45983;DHT22;31711;47.158;7.346;2023-07-31T05:48:32;15.80;99.90
45983;DHT22;31711;47.158;7.346;2023-07-31T05:51:00;15.70;99.90
45983;DHT22;31711;47.158;7.346;2023-07-31T05:53:26;15.70;99.90
45983;DHT22;31711;47.158;7.346;2023-07-31T05:55:52;15.70;99.90
45983;DHT22;31711;47.158;7.346;2023-07-31T05:58:18;15.90;99.90
45983;DHT22;31711;47.158;7.346;2023-07-31T06:00:43;16.00;99.90
45983;DHT22;31711;47.158;7.346;2023-07-31T06:03:10;16.10;99.90
45983;DHT22;31711;47.158;7.346;2023-07-31T06:05:36;16.20;99.90
45983;DHT22;31711;47.158;7.346;2023-07-31T06:08:02;16.30;99.90
45983;DHT22;31711;47.158;7.346;2023-07-31T06:10:28;16.10;99.90
45983;DHT22;31711;47.158;7.346;2023-07-31T06:12:54;16.00;99.90
45983;DHT22;31711;47.158;7.346;2023-07-31T06:15:20;16.00;99.90
45983;DHT22;31711;47.158;7.346;2023-07-31T06:17:46;16.10;99.90
45983;DHT22;31711;47.158;7.346;2023-07-31T06:20:12;16.20;99.90
45983;DHT22;31711;47.158;7.346;2023-07-31T06:22:38;16.20;99.90
45983;DHT22;31711;47.158;7.346;2023-07-31T06:25:04;16.50;99.90
45983;DHT22;31711;47.158;7.346;2023-07-31T06:27:30;16.80;99.90
45983;DHT22;31711;47.158;7.346;2023-07-31T06:29:56;17.10;99.90
45983;DHT22;31711;47.158;7.346;2023-07-31T06:32:23;17.50;99.90
45983;DHT22;31711;47.158;7.346;2023-07-31T06:34:49;17.60;99.90
45983;DHT22;31711;47.158;7.346;2023-07-31T06:37:15;17.60;99.90
45983;DHT22;31711;47.158;7.346;2023-07-31T06:39:41;17.90;99.90
45983;DHT22;31711;47.158;7.346;2023-07-31T06:42:07;18.00;99.90
45983;DHT22;31711;47.158;7.346;2023-07-31T06:44:33;17.60;99.90
45983;DHT22;31711;47.158;7.346;2023-07-31T06:46:59;17.70;99.90
45983;DHT22;31711;47.158;7.346;2023-07-31T06:49:24;17.90;99.90
45983;DHT22;31711;47.158;7.346;2023-07-31T06:51:50;17.60;99.90
45983;DHT22;31711;47.158;7.346;2023-07-31T06:54:16;17.90;99.90
45983;DHT22;31711;47.158;7.346;2023-07-31T06:56:42;18.00;99.90
45983;DHT22;31711;47.158;7.346;2023-07-31T06:59:08;18.10;99.90
45983;DHT22;31711;47.158;7.346;2023-07-31T07:01:34;18.20;99.90
45983;DHT22;31711;47.158;7.346;2023-07-31T07:04:00;18.30;99.90
45983;DHT22;31711;47.158;7.346;2023-07-31T07:06:26;18.40;99.90
45983;DHT22;31711;47.158;7.346;2023-07-31T07:08:52;18.70;99.90
45983;DHT22;31711;47.158;7.346;2023-07-31T07:11:18;19.00;99.90
45983;DHT22;31711;47.158;7.346;2023-07-31T07:13:44;19.10;99.90
45983;DHT22;31711;47.158;7.346;2023-07-31T07:16:10;19.30;99.90
45983;DHT22;31711;47.158;7.346;2023-07-31T07:18:36;19.60;99.90
45983;DHT22;31711;47.158;7.346;2023-07-31T07:21:02;19.60;99.90
45983;DHT22;31711;47.158;7.346;2023-07-31T07:23:28;19.40;99.90
45983;DHT22;31711;47.158;7.346;2023-07-31T07:25:54;19.50;99.90
45983;DHT22;31711;47.158;7.346;2023-07-31T07:28:20;19.40;99.90
45983;DHT22;31711;47.158;7.346;2023-07-31T07:30:51;19.40;99.90
45983;DHT22;31711;47.158;7.346;2023-07-31T07:33:18;19.70;99.90
45983;DHT22;31711;47.158;7.346;2023-07-31T07:35:44;19.50;99.90
45983;DHT22;31711;47.158;7.346;2023-07-31T07:38:10;19.30;99.90
45983;DHT22;31711;47.158;7.346;2023-07-31T07:40:40;19.70;99.90
45983;DHT22;31711;47.158;7.346;2023-07-31T07:43:06;19.80;99.90
45983;DHT22;31711;47.158;7.346;2023-07-31T07:45:32;19.70;99.90
45983;DHT22;31711;47.158;7.346;2023-07-31T07:47:58;19.90;99.90
45983;DHT22;31711;47.158;7.346;2023-07-31T07:50:24;20.00;99.90
45983;DHT22;31711;47.158;7.346;2023-07-31T07:52:51;20.30;99.90
45983;DHT22;31711;47.158;7.346;2023-07-31T07:55:17;20.60;99.90
45983;DHT22;31711;47.158;7.346;2023-07-31T07:57:43;20.80;99.90
45983;DHT22;31711;47.158;7.346;2023-07-31T08:00:11;20.40;99.90
45983;DHT22;31711;47.158;7.346;2023-07-31T08:02:38;20.30;99.90
45983;DHT22;31711;47.158;7.346;2023-07-31T08:05:04;20.10;99.90
45983;DHT22;31711;47.158;7.346;2023-07-31T08:07:30;20.20;99.90
45983;DHT22;31711;47.158;7.346;2023-07-31T08:09:56;20.40;99.90
45983;DHT22;31711;47.158;7.346;2023-07-31T08:12:22;20.80;99.90
45983;DHT22;31711;47.158;7.346;2023-07-31T08:14:47;20.90;99.90
45983;DHT22;31711;47.158;7.346;2023-07-31T08:17:13;21.20;99.90
45983;DHT22;31711;47.158;7.346;2023-07-31T08:19:39;21.10;99.90
45983;DHT22;31711;47.158;7.346;2023-07-31T08:22:05;21.20;99.90
45983;DHT22;31711;47.158;7.346;2023-07-31T08:24:31;21.10;99.90
45983;DHT22;31711;47.158;7.346;2023-07-31T08:26:57;21.20;99.90
45983;DHT22;31711;47.158;7.346;2023-07-31T08:29:24;21.30;99.90
45983;DHT22;31711;47.158;7.346;2023-07-31T08:31:50;21.50;99.90
45983;DHT22;31711;47.158;7.346;2023-07-31T08:34:16;20.90;99.90
45983;DHT22;31711;47.158;7.346;2023-07-31T08:36:42;21.20;99.90
45983;DHT22;31711;47.158;7.346;2023-07-31T08:39:08;21.60;99.90
45983;DHT22;31711;47.158;7.346;2023-07-31T08:41:38;21.70;99.90
45983;DHT22;31711;47.158;7.346;2023-07-31T08:44:06;21.30;99.90
45983;DHT22;31711;47.158;7.346;2023-07-31T08:46:32;21.20;99.90
45983;DHT22;31711;47.158;7.346;2023-07-31T08:48:59;21.30;99.90
45983;DHT22;31711;47.158;7.346;2023-07-31T08:51:26;21.00;99.90
45983;DHT22;31711;47.158;7.346;2023-07-31T08:53:53;21.10;99.90
45983;DHT22;31711;47.158;7.346;2023-07-31T08:56:20;21.00;99.90
45983;DHT22;31711;47.158;7.346;2023-07-31T08:58:46;21.20;99.90
45983;DHT22;31711;47.158;7.346;2023-07-31T09:01:13;21.70;99.90
45983;DHT22;31711;47.158;7.346;2023-07-31T09:03:41;22.40;99.90
45983;DHT22;31711;47.158;7.346;2023-07-31T09:06:10;22.30;99.90
45983;DHT22;31711;47.158;7.346;2023-07-31T09:08:37;22.30;99.90
45983;DHT22;31711;47.158;7.346;2023-07-31T09:11:04;22.70;99.90
45983;DHT22;31711;47.158;7.346;2023-07-31T09:13:31;22.40;99.90
45983;DHT22;31711;47.158;7.346;2023-07-31T09:15:57;22.50;99.90
45983;DHT22;31711;47.158;7.346;2023-07-31T09:18:23;22.70;99.90
45983;DHT22;31711;47.158;7.346;2023-07-31T09:21:05;22.70;99.90
45983;DHT22;31711;47.158;7.346;2023-07-31T09:26:07;23.00;99.90
45983;DHT22;31711;47.158;7.346;2023-07-31T09:28:33;22.80;99.90
45983;DHT22;31711;47.158;7.346;2023-07-31T09:30:59;22.60;99.90
45983;DHT22;31711;47.158;7.346;2023-07-31T09:33:25;22.60;99.90
45983;DHT22;31711;47.158;7.346;2023-07-31T09:35:51;22.40;99.90
45983;DHT22;31711;47.158;7.346;2023-07-31T09:38:18;22.40;99.90
45983;DHT22;31711;47.158;7.346;2023-07-31T09:40:48;22.30;99.90
45983;DHT22;31711;47.158;7.346;2023-07-31T09:43:18;22.20;99.90
45983;DHT22;31711;47.158;7.346;2023-07-31T09:45:45;22.30;99.90
45983;DHT22;31711;47.158;7.346;2023-07-31T09:48:16;22.30;99.90
45983;DHT22;31711;47.158;7.346;2023-07-31T09:50:43;22.50;99.90
45983;DHT22;31711;47.158;7.346;2023-07-31T09:53:10;22.50;99.90
45983;DHT22;31711;47.158;7.346;2023-07-31T09:55:37;22.40;99.90
45983;DHT22;31711;47.158;7.346;2023-07-31T09:58:05;22.40;99.90
45983;DHT22;31711;47.158;7.346;2023-07-31T10:00:32;22.50;99.90
45983;DHT22;31711;47.158;7.346;2023-07-31T10:02:59;22.50;99.90
45983;DHT22;31711;47.158;7.346;2023-07-31T10:05:45;22.00;99.90
45983;DHT22;31711;47.158;7.346;2023-07-31T10:08:14;22.20;99.90
45983;DHT22;31711;47.158;7.346;2023-07-31T10:10:45;21.90;99.90
45983;DHT22;31711;47.158;7.346;2023-07-31T10:13:12;22.20;99.90
45983;DHT22;31711;47.158;7.346;2023-07-31T10:15:39;22.20;99.90
45983;DHT22;31711;47.158;7.346;2023-07-31T10:18:07;22.50;99.90
45983;DHT22;31711;47.158;7.346;2023-07-31T10:20:34;22.50;99.90
45983;DHT22;31711;47.158;7.346;2023-07-31T10:23:00;22.70;99.90
45983;DHT22;31711;47.158;7.346;2023-07-31T10:25:27;22.80;99.90
45983;DHT22;31711;47.158;7.346;2023-07-31T10:27:54;23.00;99.90
45983;DHT22;31711;47.158;7.346;2023-07-31T10:30:22;22.90;99.90
45983;DHT22;31711;47.158;7.346;2023-07-31T10:32:49;23.00;99.90
45983;DHT22;31711;47.158;7.346;2023-07-31T10:35:17;23.10;99.90
45983;DHT22;31711;47.158;7.346;2023-07-31T10:37:44;23.00;99.90
45983;DHT22;31711;47.158;7.346;2023-07-31T10:40:18;23.00;99.90
45983;DHT22;31711;47.158;7.346;2023-07-31T10:42:48;23.30;99.90
45983;DHT22;31711;47.158;7.346;2023-07-31T10:45:34;23.20;99.90
45983;DHT22;31711;47.158;7.346;2023-07-31T10:48:16;23.30;99.00
45983;DHT22;31711;47.158;7.346;2023-07-31T10:50:55;23.30;99.50
45983;DHT22;31711;47.158;7.346;2023-07-31T10:53:28;23.20;99.40
45983;DHT22;31711;47.158;7.346;2023-07-31T10:55:58;23.30;99.30
45983;DHT22;31711;47.158;7.346;2023-07-31T10:58:25;23.50;98.70
45983;DHT22;31711;47.158;7.346;2023-07-31T11:00:55;23.70;99.20
45983;DHT22;31711;47.158;7.346;2023-07-31T11:03:25;24.00;98.80
45983;DHT22;31711;47.158;7.346;2023-07-31T11:06:02;23.90;98.20
45983;DHT22;31711;47.158;7.346;2023-07-31T11:08:35;24.10;98.30
45983;DHT22;31711;47.158;7.346;2023-07-31T11:13:32;24.10;98.30
45983;DHT22;31711;47.158;7.346;2023-07-31T11:15:59;24.10;98.80
45983;DHT22;31711;47.158;7.346;2023-07-31T11:18:26;23.90;98.10
45983;DHT22;31711;47.158;7.346;2023-07-31T11:20:53;24.10;98.30
45983;DHT22;31711;47.158;7.346;2023-07-31T11:23:19;24.20;98.40
45983;DHT22;31711;47.158;7.346;2023-07-31T11:25:46;23.80;98.30
45983;DHT22;31711;47.158;7.346;2023-07-31T11:28:13;23.80;99.00
45983;DHT22;31711;47.158;7.346;2023-07-31T11:30:41;23.90;97.10
45983;DHT22;31711;47.158;7.346;2023-07-31T11:33:08;24.00;98.50
45983;DHT22;31711;47.158;7.346;2023-07-31T11:35:40;23.90;98.50
45983;DHT22;31711;47.158;7.346;2023-07-31T11:38:07;23.90;97.60
45983;DHT22;31711;47.158;7.346;2023-07-31T11:40:42;24.30;98.50
45983;DHT22;31711;47.158;7.346;2023-07-31T11:43:08;24.40;97.90
45983;DHT22;31711;47.158;7.346;2023-07-31T11:45:34;24.60;97.60
45983;DHT22;31711;47.158;7.346;2023-07-31T11:48:03;24.80;97.40
45983;DHT22;31711;47.158;7.346;2023-07-31T11:50:33;24.90;98.60
45983;DHT22;31711;47.158;7.346;2023-07-31T11:53:06;25.10;97.30
45983;DHT22;31711;47.158;7.346;2023-07-31T11:55:33;25.00;97.80
45983;DHT22;31711;47.158;7.346;2023-07-31T11:57:59;24.80;97.10
45983;DHT22;31711;47.158;7.346;2023-07-31T12:00:27;24.80;97.30
45983;DHT22;31711;47.158;7.346;2023-07-31T12:02:53;24.80;97.50
45983;DHT22;31711;47.158;7.346;2023-07-31T12:05:19;25.20;97.80
45983;DHT22;31711;47.158;7.346;2023-07-31T12:07:53;25.30;96.80
45983;DHT22;31711;47.158;7.346;2023-07-31T12:10:30;25.60;96.70
45983;DHT22;31711;47.158;7.346;2023-07-31T12:13:00;26.00;97.30
45983;DHT22;31711;47.158;7.346;2023-07-31T12:17:59;26.10;95.50
45983;DHT22;31711;47.158;7.346;2023-07-31T12:20:26;25.80;95.60
45983;DHT22;31711;47.158;7.346;2023-07-31T12:22:52;26.40;95.10
45983;DHT22;31711;47.158;7.346;2023-07-31T12:25:17;26.60;95.40
45983;DHT22;31711;47.158;7.346;2023-07-31T12:27:46;26.60;95.40
45983;DHT22;31711;47.158;7.346;2023-07-31T12:30:32;27.00;94.70
45983;DHT22;31711;47.158;7.346;2023-07-31T12:33:12;27.40;94.80
45983;DHT22;31711;47.158;7.346;2023-07-31T12:35:43;27.50;94.40
45983;DHT22;31711;47.158;7.346;2023-07-31T12:38:09;27.60;94.00
45983;DHT22;31711;47.158;7.346;2023-07-31T12:40:39;27.50;94.30
45983;DHT22;31711;47.158;7.346;2023-07-31T12:43:06;27.60;94.50
45983;DHT22;31711;47.158;7.346;2023-07-31T12:45:32;27.50;93.70
45983;DHT22;31711;47.158;7.346;2023-07-31T12:47:59;27.80;94.60
45983;DHT22;31711;47.158;7.346;2023-07-31T12:50:25;28.20;93.70
45983;DHT22;31711;47.158;7.346;2023-07-31T12:52:53;28.00;92.50
45983;DHT22;31711;47.158;7.346;2023-07-31T12:55:19;28.40;91.90
45983;DHT22;31711;47.158;7.346;2023-07-31T12:57:45;28.90;92.20
45983;DHT22;31711;47.158;7.346;2023-07-31T13:00:12;28.90;92.10
45983;DHT22;31711;47.158;7.346;2023-07-31T13:02:38;27.20;92.30
45983;DHT22;31711;47.158;7.346;2023-07-31T13:05:04;26.80;92.70
45983;DHT22;31711;47.158;7.346;2023-07-31T13:07:30;27.20;93.10
45983;DHT22;31711;47.158;7.346;2023-07-31T13:09:56;27.60;92.80
45983;DHT22;31711;47.158;7.346;2023-07-31T13:12:22;27.90;92.10
45983;DHT22;31711;47.158;7.346;2023-07-31T13:14:49;27.80;91.90
45983;DHT22;31711;47.158;7.346;2023-07-31T13:17:15;27.20;92.20
45983;DHT22;31711;47.158;7.346;2023-07-31T13:19:42;26.70;92.50
45983;DHT22;31711;47.158;7.346;2023-07-31T13:22:08;27.30;93.40
45983;DHT22;31711;47.158;7.346;2023-07-31T13:24:34;27.10;92.30
45983;DHT22;31711;47.158;7.346;2023-07-31T13:27:00;27.50;91.80
45983;DHT22;31711;47.158;7.346;2023-07-31T13:29:26;27.90;91.50
45983;DHT22;31711;47.158;7.346;2023-07-31T13:31:53;27.80;91.60
45983;DHT22;31711;47.158;7.346;2023-07-31T13:34:18;27.60;91.20
45983;DHT22;31711;47.158;7.346;2023-07-31T13:36:44;27.50;91.60
45983;DHT22;31711;47.158;7.346;2023-07-31T13:39:11;27.00;91.10
45983;DHT22;31711;47.158;7.346;2023-07-31T13:41:37;27.50;91.90
45983;DHT22;31711;47.158;7.346;2023-07-31T13:44:03;27.80;92.00
45983;DHT22;31711;47.158;7.346;2023-07-31T13:46:29;27.70;92.70
45983;DHT22;31711;47.158;7.346;2023-07-31T13:48:55;27.30;91.50
45983;DHT22;31711;47.158;7.346;2023-07-31T13:51:22;27.50;91.60
45983;DHT22;31711;47.158;7.346;2023-07-31T13:53:48;27.40;90.90
45983;DHT22;31711;47.158;7.346;2023-07-31T13:56:14;27.90;91.50
45983;DHT22;31711;47.158;7.346;2023-07-31T13:58:40;27.60;91.50
45983;DHT22;31711;47.158;7.346;2023-07-31T14:01:06;27.50;92.40
45983;DHT22;31711;47.158;7.346;2023-07-31T14:03:32;27.20;91.50
45983;DHT22;31711;47.158;7.346;2023-07-31T14:05:58;27.10;92.10
45983;DHT22;31711;47.158;7.346;2023-07-31T14:08:24;27.70;91.50
45983;DHT22;31711;47.158;7.346;2023-07-31T14:10:50;27.70;91.80
45983;DHT22;31711;47.158;7.346;2023-07-31T14:13:16;27.40;90.90
45983;DHT22;31711;47.158;7.346;2023-07-31T14:15:42;27.50;92.10
45983;DHT22;31711;47.158;7.346;2023-07-31T14:18:09;27.30;91.40
45983;DHT22;31711;47.158;7.346;2023-07-31T14:20:35;27.50;90.90
45983;DHT22;31711;47.158;7.346;2023-07-31T14:23:02;27.30;91.50
45983;DHT22;31711;47.158;7.346;2023-07-31T14:25:28;27.40;92.00
45983;DHT22;31711;47.158;7.346;2023-07-31T14:27:54;27.20;91.60
45983;DHT22;31711;47.158;7.346;2023-07-31T14:30:20;27.10;91.90
45983;DHT22;31711;47.158;7.346;2023-07-31T14:32:47;27.40;91.30
45983;DHT22;31711;47.158;7.346;2023-07-31T14:35:13;27.70;91.70
45983;DHT22;31711;47.158;7.346;2023-07-31T14:37:40;27.70;91.40
45983;DHT22;31711;47.158;7.346;2023-07-31T14:40:11;27.40;90.70
45983;DHT22;31711;47.158;7.346;2023-07-31T14:42:38;27.50;90.90
45983;DHT22;31711;47.158;7.346;2023-07-31T14:45:06;27.70;91.10
45983;DHT22;31711;47.158;7.346;2023-07-31T14:47:32;27.50;90.70
45983;DHT22;31711;47.158;7.346;2023-07-31T14:49:59;27.60;91.30
45983;DHT22;31711;47.158;7.346;2023-07-31T14:52:25;27.80;91.30
45983;DHT22;31711;47.158;7.346;2023-07-31T14:54:52;28.00;91.60
45983;DHT22;31711;47.158;7.346;2023-07-31T14:57:18;28.00;90.10
45983;DHT22;31711;47.158;7.346;2023-07-31T14:59:45;28.10;92.00
45983;DHT22;31711;47.158;7.346;2023-07-31T15:02:11;28.20;91.60
45983;DHT22;31711;47.158;7.346;2023-07-31T15:04:38;28.60;91.40
45983;DHT22;31711;47.158;7.346;2023-07-31T15:07:04;28.60;90.00
45983;DHT22;31711;47.158;7.346;2023-07-31T15:09:30;28.70;91.20
45983;DHT22;31711;47.158;7.346;2023-07-31T15:11:56;28.90;90.50
45983;DHT22;31711;47.158;7.346;2023-07-31T15:14:23;28.70;91.30
45983;DHT22;31711;47.158;7.346;2023-07-31T15:16:49;28.50;89.80
45983;DHT22;31711;47.158;7.346;2023-07-31T15:19:15;28.30;90.70
45983;DHT22;31711;47.158;7.346;2023-07-31T15:21:42;28.60;90.30
45983;DHT22;31711;47.158;7.346;2023-07-31T15:24:08;28.70;90.50
45983;DHT22;31711;47.158;7.346;2023-07-31T15:26:34;28.50;90.20
45983;DHT22;31711;47.158;7.346;2023-07-31T15:29:07;28.40;90.10
45983;DHT22;31711;47.158;7.346;2023-07-31T15:31:40;28.30;90.30
45983;DHT22;31711;47.158;7.346;2023-07-31T15:34:06;27.90;89.80
45983;DHT22;31711;47.158;7.346;2023-07-31T15:36:32;28.20;90.40
45983;DHT22;31711;47.158;7.346;2023-07-31T15:38:59;28.10;90.80
45983;DHT22;31711;47.158;7.346;2023-07-31T15:41:25;28.30;89.90